createdAt,value
2023-03-03T00:01:10.908Z,6.50
2023-03-03T00:03:40.394Z,6.50
2023-03-03T00:06:12.263Z,6.50
2023-03-03T00:08:41.879Z,6.50
2023-03-03T00:11:12.700Z,6.50
2023-03-03T00:13:49.476Z,6.50
2023-03-03T00:16:23.947Z,6.50
2023-03-03T00:18:53.409Z,6.50
2023-03-03T00:21:29.560Z,6.60
2023-03-03T00:24:17.099Z,6.60
2023-03-03T00:26:49.571Z,6.60
2023-03-03T00:29:31.026Z,6.60
2023-03-03T00:32:17.751Z,6.60
2023-03-03T00:34:46.674Z,6.60
2023-03-03T00:37:29.307Z,6.60
2023-03-03T00:40:15.088Z,6.60
2023-03-03T00:42:48.600Z,6.50
2023-03-03T00:45:31.332Z,6.50
2023-03-03T00:48:00.654Z,6.40
2023-03-03T00:50:36.074Z,6.40
2023-03-03T00:53:12.418Z,6.30
2023-03-03T00:55:41.982Z,6.30
2023-03-03T00:58:12.589Z,6.20
2023-03-03T01:00:42.488Z,6.20
2023-03-03T01:03:15.012Z,6.10
2023-03-03T01:05:44.168Z,6.10
2023-03-03T01:08:13.152Z,6.00
2023-03-03T01:10:46.750Z,6.00
2023-03-03T01:13:17.068Z,6.00
2023-03-03T01:15:46.218Z,6.00
2023-03-03T01:18:15.953Z,5.90
2023-03-03T01:20:44.914Z,5.80
2023-03-03T01:23:13.832Z,5.70
2023-03-03T01:25:42.835Z,5.60
2023-03-03T01:28:11.909Z,5.50
2023-03-03T01:30:42.256Z,5.50
2023-03-03T01:33:11.140Z,5.50
2023-03-03T01:35:44.693Z,5.50
2023-03-03T01:38:13.583Z,5.40
2023-03-03T01:40:42.984Z,5.40
2023-03-03T01:43:16.221Z,5.40
2023-03-03T01:46:15.348Z,5.30
2023-03-03T01:48:45.838Z,5.20
2023-03-03T01:51:22.277Z,5.20
2023-03-03T01:53:55.035Z,5.10
2023-03-03T01:56:24.076Z,5.10
2023-03-03T01:58:58.052Z,5.10
2023-03-03T02:01:30.409Z,5.00
2023-03-03T02:03:59.638Z,5.00
2023-03-03T02:06:32.511Z,5.00
2023-03-03T02:09:05.396Z,5.00
2023-03-03T02:11:37.862Z,5.00
2023-03-03T02:14:06.835Z,4.90
2023-03-03T02:16:37.292Z,4.90
2023-03-03T02:19:07.001Z,4.90
2023-03-03T02:21:35.944Z,4.90
2023-03-03T02:24:09.542Z,4.80
2023-03-03T02:26:42.765Z,4.80
2023-03-03T02:29:11.647Z,4.80
2023-03-03T02:31:40.335Z,4.70
2023-03-03T02:34:08.902Z,4.70
2023-03-03T02:36:39.474Z,4.60
2023-03-03T02:39:12.104Z,4.60
2023-03-03T02:41:46.461Z,4.50
2023-03-03T02:44:16.191Z,4.40
2023-03-03T02:46:46.587Z,4.40
2023-03-03T02:49:16.588Z,4.30
2023-03-03T02:51:45.563Z,4.20
2023-03-03T02:54:16.134Z,4.20
2023-03-03T02:56:45.932Z,4.10
2023-03-03T02:59:14.503Z,4.10
2023-03-03T03:01:43.097Z,4.00
2023-03-03T03:04:13.716Z,4.00
2023-03-03T03:06:42.487Z,4.00
2023-03-03T03:09:11.788Z,4.00
2023-03-03T03:11:40.511Z,4.00
2023-03-03T03:14:12.079Z,4.00
2023-03-03T03:16:41.007Z,4.00
2023-03-03T03:19:10.115Z,4.10
2023-03-03T03:21:38.449Z,4.10
2023-03-03T03:24:07.307Z,4.10
2023-03-03T03:26:35.568Z,4.10
2023-03-03T03:29:03.870Z,4.10
2023-03-03T03:31:33.816Z,4.00
2023-03-03T03:34:02.092Z,4.00
2023-03-03T03:36:30.352Z,4.00
2023-03-03T03:38:58.632Z,4.00
2023-03-03T03:41:26.803Z,3.90
2023-03-03T03:43:54.988Z,3.90
2023-03-03T03:46:23.194Z,3.90
2023-03-03T03:48:52.896Z,3.90
2023-03-03T03:51:21.182Z,3.90
2023-03-03T03:53:49.397Z,3.90
2023-03-03T03:56:17.692Z,3.90
2023-03-03T03:58:45.920Z,3.90
2023-03-03T04:01:14.162Z,3.90
2023-03-03T04:03:42.645Z,3.90
2023-03-03T04:06:12.245Z,3.90
2023-03-03T04:08:40.478Z,3.90
2023-03-03T04:11:08.720Z,3.80
2023-03-03T04:13:37.027Z,3.80
2023-03-03T04:16:05.521Z,3.80
2023-03-03T04:18:33.795Z,3.80
2023-03-03T04:21:02.054Z,3.80
2023-03-03T04:23:31.716Z,3.80
2023-03-03T04:26:00.035Z,3.80
2023-03-03T04:28:28.366Z,3.80
2023-03-03T04:30:56.610Z,3.80
2023-03-03T04:33:24.838Z,3.90
2023-03-03T04:35:53.245Z,3.90
2023-03-03T04:38:21.984Z,3.90
2023-03-03T04:40:51.673Z,3.80
2023-03-03T04:43:19.874Z,3.80
2023-03-03T04:45:48.273Z,3.90
2023-03-03T04:48:16.526Z,3.90
2023-03-03T04:50:44.739Z,3.80
2023-03-03T04:53:13.002Z,3.90
2023-03-03T04:55:41.187Z,3.90
2023-03-03T04:58:11.121Z,3.90
2023-03-03T05:00:39.820Z,3.90
2023-03-03T05:03:08.322Z,3.90
2023-03-03T05:05:36.535Z,3.90
2023-03-03T05:08:04.781Z,4.00
2023-03-03T05:10:35.055Z,4.10
2023-03-03T05:13:03.426Z,4.10
2023-03-03T05:15:33.137Z,4.10
2023-03-03T05:18:01.520Z,4.10
2023-03-03T05:20:29.766Z,4.10
2023-03-03T05:23:00.106Z,4.00
2023-03-03T05:25:28.372Z,4.10
2023-03-03T05:27:56.693Z,4.00
2023-03-03T05:30:27.531Z,4.00
2023-03-03T05:32:59.408Z,4.00
2023-03-03T05:35:27.732Z,3.90
2023-03-03T05:37:58.116Z,4.00
2023-03-03T05:40:27.008Z,4.00
2023-03-03T05:42:55.391Z,4.00
2023-03-03T05:45:24.430Z,4.10
2023-03-03T05:47:53.046Z,4.10
2023-03-03T05:50:24.112Z,4.10
2023-03-03T05:52:53.548Z,4.10
2023-03-03T05:55:21.844Z,4.10
2023-03-03T05:57:50.126Z,4.10
2023-03-03T06:00:19.342Z,4.00
2023-03-03T06:02:47.906Z,4.00
2023-03-03T06:05:16.186Z,4.00
2023-03-03T06:07:45.786Z,3.90
2023-03-03T06:10:14.059Z,3.90
2023-03-03T06:12:42.287Z,3.90
2023-03-03T06:15:11.377Z,3.90
2023-03-03T06:17:39.645Z,3.80
2023-03-03T06:20:16.759Z,3.80
2023-03-03T06:22:46.423Z,3.80
2023-03-03T06:25:14.677Z,3.80
2023-03-03T06:27:42.929Z,3.90
2023-03-03T06:30:12.958Z,3.90
2023-03-03T06:32:41.480Z,3.90
2023-03-03T06:35:10.025Z,3.90
2023-03-03T06:37:38.297Z,3.90
2023-03-03T06:40:09.461Z,3.90
2023-03-03T06:42:37.692Z,3.90
2023-03-03T06:45:06.666Z,3.90
2023-03-03T06:47:35.108Z,3.90
2023-03-03T06:50:03.294Z,3.80
2023-03-03T06:52:31.511Z,3.80
2023-03-03T06:55:01.982Z,3.70
2023-03-03T06:57:33.466Z,3.80
2023-03-03T07:00:14.278Z,3.70
2023-03-03T07:02:42.612Z,3.70
2023-03-03T07:05:16.265Z,3.70
2023-03-03T07:07:45.191Z,3.60
2023-03-03T07:10:25.030Z,3.70
2023-03-03T07:12:55.040Z,3.60
2023-03-03T07:15:25.735Z,3.60
2023-03-03T07:17:59.821Z,3.60
2023-03-03T07:20:36.277Z,3.60
2023-03-03T07:23:19.937Z,3.60
2023-03-03T07:25:48.678Z,3.60
2023-03-03T07:28:24.175Z,3.60
2023-03-03T07:30:52.723Z,3.70
2023-03-03T07:33:27.188Z,3.70
2023-03-03T07:35:57.093Z,3.70
2023-03-03T07:38:32.180Z,3.70
2023-03-03T07:41:02.975Z,3.70
2023-03-03T07:43:39.166Z,3.70
2023-03-03T07:46:27.964Z,3.80
2023-03-03T07:49:00.117Z,3.80
2023-03-03T07:51:31.856Z,3.80
2023-03-03T07:54:18.919Z,3.80
2023-03-03T07:56:48.072Z,3.80
2023-03-03T07:59:23.844Z,3.80
2023-03-03T08:01:55.298Z,3.90
2023-03-03T08:04:29.601Z,3.90
2023-03-03T08:06:59.176Z,3.90
2023-03-03T08:09:40.259Z,3.90
2023-03-03T08:12:31.449Z,3.90
2023-03-03T08:15:30.784Z,3.90
2023-03-03T08:18:02.559Z,3.90
2023-03-03T08:20:57.202Z,3.90
2023-03-03T08:23:25.407Z,3.90
2023-03-03T08:25:54.030Z,3.90
2023-03-03T08:28:22.780Z,4.00
2023-03-03T08:31:02.703Z,4.10
2023-03-03T08:33:34.107Z,4.20
2023-03-03T08:36:03.084Z,4.30
2023-03-03T08:38:31.287Z,4.30
2023-03-03T08:40:59.484Z,4.40
2023-03-03T08:43:28.733Z,4.50
2023-03-03T08:46:01.214Z,4.60
2023-03-03T08:48:30.298Z,4.50
2023-03-03T08:50:58.855Z,4.50
2023-03-03T08:53:27.506Z,4.50
2023-03-03T08:55:56.108Z,4.50
2023-03-03T08:58:34.715Z,4.40
2023-03-03T09:01:05.692Z,4.40
2023-03-03T09:03:34.097Z,4.40
2023-03-03T09:06:02.388Z,4.40
2023-03-03T09:08:30.594Z,4.40
2023-03-03T09:10:58.847Z,4.40
2023-03-03T09:13:28.385Z,4.50
2023-03-03T09:15:59.101Z,4.50
2023-03-03T09:18:36.488Z,4.50
2023-03-03T09:21:20.079Z,4.60
2023-03-03T09:23:51.953Z,4.60
2023-03-03T09:26:31.326Z,4.70
2023-03-03T09:29:10.896Z,4.70
2023-03-03T09:31:46.308Z,4.80
2023-03-03T09:34:21.439Z,4.80
2023-03-03T09:36:50.588Z,4.80
2023-03-03T09:39:23.416Z,4.90
2023-03-03T09:42:26.117Z,4.90
2023-03-03T09:45:18.803Z,4.90
2023-03-03T09:48:04.141Z,5.00
2023-03-03T09:50:45.051Z,5.00
2023-03-03T09:53:25.370Z,5.10
2023-03-03T09:56:00.759Z,5.20
2023-03-03T09:58:51.278Z,5.20
2023-03-03T10:01:48.397Z,5.30
2023-03-03T10:04:50.661Z,5.40
2023-03-03T10:07:39.123Z,5.40
2023-03-03T10:10:30.925Z,5.50
2023-03-03T10:13:13.254Z,5.50
2023-03-03T10:15:49.282Z,5.50
2023-03-03T10:18:32.256Z,5.60
2023-03-03T10:21:10.764Z,5.80
2023-03-03T10:23:58.815Z,6.00
2023-03-03T10:27:12.125Z,6.10
2023-03-03T10:29:54.174Z,6.10
2023-03-03T10:32:43.618Z,6.00
2023-03-03T10:35:41.518Z,6.00
2023-03-03T10:38:27.465Z,6.00
2023-03-03T10:41:08.557Z,6.00
2023-03-03T10:44:00.573Z,6.10
2023-03-03T10:46:47.231Z,6.10
2023-03-03T10:49:47.682Z,6.10
2023-03-03T10:52:46.413Z,6.10
2023-03-03T10:55:38.262Z,6.10
2023-03-03T10:58:28.607Z,6.10
2023-03-03T11:01:05.414Z,6.10
2023-03-03T11:03:46.745Z,6.00
2023-03-03T11:06:21.668Z,6.00
2023-03-03T11:08:55.187Z,6.00
2023-03-03T11:11:34.191Z,6.00
2023-03-03T11:14:13.241Z,5.90
2023-03-03T11:16:54.392Z,5.90
2023-03-03T11:19:47.490Z,6.00
2023-03-03T11:22:29.524Z,6.10
2023-03-03T11:25:06.679Z,6.20
2023-03-03T11:28:07.702Z,6.40
2023-03-03T11:30:47.209Z,6.60
2023-03-03T11:33:22.273Z,6.80
2023-03-03T11:36:02.661Z,7.10
2023-03-03T11:38:42.612Z,7.30
2023-03-03T11:41:24.603Z,7.60
2023-03-03T11:43:57.680Z,7.80
2023-03-03T11:46:34.199Z,8.00
2023-03-03T11:49:07.831Z,8.20
2023-03-03T11:51:45.306Z,8.30
2023-03-03T11:54:22.213Z,8.50
2023-03-03T11:56:51.074Z,8.60
2023-03-03T11:59:47.249Z,8.70
2023-03-03T12:02:37.179Z,8.80
2023-03-03T12:05:11.828Z,8.90
2023-03-03T12:07:50.724Z,9.10
2023-03-03T12:10:29.163Z,9.30
2023-03-03T12:13:04.472Z,9.80
2023-03-03T12:15:44.823Z,10.20
2023-03-03T12:18:40.471Z,10.70
2023-03-03T12:21:26.136Z,11.20
2023-03-03T12:24:23.550Z,11.70
2023-03-03T12:27:00.192Z,12.10
2023-03-03T12:29:36.733Z,12.50
2023-03-03T12:32:18.709Z,12.90
2023-03-03T12:34:54.955Z,13.40
2023-03-03T12:37:40.472Z,13.90
2023-03-03T12:40:14.488Z,14.30
2023-03-03T12:43:05.845Z,14.70
2023-03-03T12:45:43.289Z,15.10
2023-03-03T12:48:18.163Z,15.40
2023-03-03T12:51:00.660Z,15.70
2023-03-03T12:53:47.896Z,16.00
2023-03-03T12:56:26.175Z,16.30
2023-03-03T12:59:01.733Z,16.50
2023-03-03T13:01:46.050Z,16.80
2023-03-03T13:04:29.987Z,17.10
2023-03-03T13:07:06.061Z,17.30
2023-03-03T13:09:41.653Z,17.30
2023-03-03T13:12:26.923Z,17.30
2023-03-03T13:14:58.674Z,17.30
2023-03-03T13:17:31.517Z,17.40
2023-03-03T13:20:02.229Z,17.50
2023-03-03T13:22:40.864Z,17.70
2023-03-03T13:25:25.956Z,17.80
2023-03-03T13:28:00.154Z,18.00
2023-03-03T13:30:33.240Z,18.00
2023-03-03T13:33:04.688Z,17.90
2023-03-03T13:35:44.595Z,17.70
2023-03-03T13:38:19.908Z,17.40
2023-03-03T13:40:52.104Z,17.10
2023-03-03T13:43:24.107Z,17.00
2023-03-03T13:46:00.146Z,17.00
2023-03-03T13:48:45.127Z,17.10
2023-03-03T13:51:23.304Z,17.20
2023-03-03T13:54:00.009Z,17.20
2023-03-03T13:56:41.190Z,17.00
2023-03-03T13:59:18.791Z,16.80
2023-03-03T14:01:57.235Z,16.60
2023-03-03T14:04:39.639Z,16.50
2023-03-03T14:07:15.596Z,16.50
2023-03-03T14:10:03.588Z,16.50
2023-03-03T14:12:43.354Z,16.60
2023-03-03T14:15:23.853Z,16.70
2023-03-03T14:18:16.969Z,16.90
2023-03-03T14:20:49.626Z,17.10
2023-03-03T14:23:22.931Z,17.40
2023-03-03T14:26:08.717Z,17.60
2023-03-03T14:28:44.146Z,17.80
2023-03-03T14:31:19.431Z,17.90
2023-03-03T14:33:58.537Z,18.00
2023-03-03T14:36:32.194Z,18.00
2023-03-03T14:39:01.031Z,18.10
2023-03-03T14:41:43.062Z,18.00
2023-03-03T14:44:29.598Z,17.90
2023-03-03T14:47:14.436Z,17.90
2023-03-03T14:49:42.895Z,17.90
2023-03-03T14:52:22.670Z,17.90
2023-03-03T14:54:54.246Z,17.90
2023-03-03T14:57:46.329Z,18.00
2023-03-03T15:00:31.351Z,17.90
2023-03-03T15:03:06.723Z,17.80
2023-03-03T15:05:35.347Z,17.70
2023-03-03T15:08:12.376Z,17.50
2023-03-03T15:10:42.476Z,17.40
2023-03-03T15:13:34.146Z,17.30
2023-03-03T15:16:12.052Z,17.20
2023-03-03T15:19:07.267Z,17.10
2023-03-03T15:21:38.355Z,17.00
2023-03-03T15:24:14.129Z,16.90
2023-03-03T15:26:48.567Z,16.70
2023-03-03T15:29:26.483Z,16.70
2023-03-03T15:32:02.343Z,16.60
2023-03-03T15:34:39.051Z,16.50
2023-03-03T15:37:27.507Z,16.50
2023-03-03T15:40:04.508Z,16.60
2023-03-03T15:42:39.353Z,16.60
2023-03-03T15:45:19.204Z,16.50
2023-03-03T15:48:13.784Z,16.30
2023-03-03T15:50:51.723Z,16.10
2023-03-03T15:53:42.010Z,15.90
2023-03-03T15:56:21.830Z,15.80
2023-03-03T15:59:14.076Z,15.50
2023-03-03T16:01:52.880Z,15.20
2023-03-03T16:04:25.739Z,14.90
2023-03-03T16:07:03.353Z,14.60
2023-03-03T16:09:44.556Z,14.20
2023-03-03T16:12:22.112Z,13.90
2023-03-03T16:15:21.161Z,13.60
2023-03-03T16:18:00.221Z,13.30
2023-03-03T16:20:34.098Z,12.90
2023-03-03T16:23:26.011Z,12.70
2023-03-03T16:26:07.266Z,12.30
2023-03-03T16:28:47.520Z,12.10
2023-03-03T16:31:24.214Z,11.90
2023-03-03T16:34:01.870Z,11.70
2023-03-03T16:36:40.467Z,11.60
2023-03-03T16:39:18.473Z,11.30
2023-03-03T16:41:52.566Z,11.10
2023-03-03T16:44:35.438Z,10.90
2023-03-03T16:47:18.539Z,10.70
2023-03-03T16:49:54.420Z,10.50
2023-03-03T16:52:30.317Z,10.30
2023-03-03T16:55:10.035Z,10.20
2023-03-03T16:57:52.443Z,9.90
2023-03-03T17:01:06.786Z,9.80
2023-03-03T17:03:41.886Z,9.60
2023-03-03T17:06:20.496Z,9.40
2023-03-03T17:09:20.445Z,9.30
2023-03-03T17:12:08.356Z,9.10
2023-03-03T17:15:00.738Z,8.90
2023-03-03T17:17:39.425Z,8.80
2023-03-03T17:20:31.251Z,8.60
2023-03-03T17:23:21.139Z,8.50
2023-03-03T17:25:58.365Z,8.40
2023-03-03T17:28:35.893Z,8.20
2023-03-03T17:31:15.951Z,8.10
2023-03-03T17:34:21.049Z,8.00
2023-03-03T17:37:01.712Z,7.90
2023-03-03T17:40:14.148Z,7.80
2023-03-03T17:42:50.626Z,7.70
2023-03-03T17:45:23.450Z,7.60
2023-03-03T17:48:25.055Z,7.50
2023-03-03T17:51:38.782Z,7.40
2023-03-03T17:54:38.190Z,7.30
2023-03-03T17:57:57.599Z,7.20
2023-03-03T18:00:52.092Z,7.20
2023-03-03T18:04:22.101Z,7.00
2023-03-03T18:07:47.908Z,7.00
2023-03-03T18:10:43.515Z,6.90
2023-03-03T18:13:30.908Z,6.90
2023-03-03T18:16:22.284Z,6.80
2023-03-03T18:19:35.202Z,6.80
2023-03-03T18:22:08.798Z,6.70
2023-03-03T18:24:42.536Z,6.60
2023-03-03T18:27:35.797Z,6.60
2023-03-03T18:30:26.479Z,6.60
2023-03-03T18:33:15.499Z,6.60
2023-03-03T18:35:47.551Z,6.50
2023-03-03T18:38:41.833Z,6.50
2023-03-03T18:41:16.520Z,6.40
2023-03-03T18:43:56.752Z,6.40
2023-03-03T18:46:56.000Z,6.40
2023-03-03T18:49:52.765Z,6.40
2023-03-03T18:52:29.976Z,6.40
2023-03-03T18:55:24.319Z,6.40
2023-03-03T18:58:29.041Z,6.40
2023-03-03T19:01:00.735Z,6.40
2023-03-03T19:03:35.218Z,6.40
2023-03-03T19:06:11.915Z,6.40
2023-03-03T19:08:56.727Z,6.40
2023-03-03T19:11:56.368Z,6.30
2023-03-03T19:14:39.101Z,6.30
2023-03-03T19:17:41.901Z,6.30
2023-03-03T19:20:30.855Z,6.30
2023-03-03T19:23:40.970Z,6.30
2023-03-03T19:26:53.348Z,6.30
2023-03-03T19:29:48.364Z,6.30
2023-03-03T19:32:32.106Z,6.40
2023-03-03T19:35:13.902Z,6.40
2023-03-03T19:37:52.168Z,6.40
2023-03-03T19:40:27.115Z,6.40
2023-03-03T19:43:03.720Z,6.40
2023-03-03T19:45:48.472Z,6.40
2023-03-03T19:48:26.965Z,6.40
2023-03-03T19:51:01.925Z,6.40
2023-03-03T19:53:42.812Z,6.40
2023-03-03T19:56:20.048Z,6.30
2023-03-03T19:58:59.527Z,6.30
2023-03-03T20:01:32.528Z,6.30
2023-03-03T20:04:17.657Z,6.20
2023-03-03T20:06:55.570Z,6.20
2023-03-03T20:09:36.230Z,6.20
2023-03-03T20:12:20.742Z,6.10
2023-03-03T20:14:54.895Z,6.00
2023-03-03T20:17:49.948Z,6.00
2023-03-03T20:20:42.331Z,5.90
2023-03-03T20:23:20.675Z,5.70
2023-03-03T20:25:53.276Z,5.60
2023-03-03T20:28:57.861Z,5.50
2023-03-03T20:31:35.693Z,5.40
2023-03-03T20:34:19.122Z,5.40
2023-03-03T20:36:56.760Z,5.30
2023-03-03T20:39:49.577Z,5.30
2023-03-03T20:42:33.830Z,5.30
2023-03-03T20:45:28.271Z,5.30
2023-03-03T20:48:10.979Z,5.30
2023-03-03T20:50:52.105Z,5.30
2023-03-03T20:53:28.170Z,5.30
2023-03-03T20:56:05.831Z,5.20
2023-03-03T20:58:43.390Z,5.20
2023-03-03T21:01:15.806Z,5.20
2023-03-03T21:03:46.324Z,5.20
2023-03-03T21:06:16.476Z,5.20
2023-03-03T21:08:49.524Z,5.20
2023-03-03T21:11:21.567Z,5.10
2023-03-03T21:13:52.019Z,5.10
2023-03-03T21:16:39.969Z,5.10
2023-03-03T21:19:13.285Z,5.10
2023-03-03T21:21:45.190Z,5.10
2023-03-03T21:24:19.673Z,5.00
2023-03-03T21:26:58.684Z,5.00
2023-03-03T21:29:28.717Z,5.00
2023-03-03T21:31:58.908Z,5.00
2023-03-03T21:34:31.210Z,4.90
2023-03-03T21:37:00.123Z,4.80
2023-03-03T21:39:31.692Z,4.80
2023-03-03T21:42:02.518Z,4.70
2023-03-03T21:44:34.017Z,4.60
2023-03-03T21:47:02.562Z,4.60
2023-03-03T21:49:32.228Z,4.50
2023-03-03T21:52:00.851Z,4.40
2023-03-03T21:54:29.489Z,4.40
2023-03-03T21:56:57.735Z,4.30
2023-03-03T21:59:26.130Z,4.30
2023-03-03T22:01:54.459Z,4.30
2023-03-03T22:04:22.706Z,4.20
2023-03-03T22:06:52.834Z,4.20
2023-03-03T22:09:21.113Z,4.10
2023-03-03T22:11:49.874Z,4.00
2023-03-03T22:14:18.100Z,4.00
2023-03-03T22:16:47.576Z,3.90
2023-03-03T22:19:15.957Z,3.90
2023-03-03T22:21:44.290Z,3.90
2023-03-03T22:24:13.961Z,3.90
2023-03-03T22:26:42.184Z,3.80
2023-03-03T22:29:10.752Z,3.80
2023-03-03T22:31:38.988Z,3.80
2023-03-03T22:34:07.303Z,3.70
2023-03-03T22:36:35.570Z,3.70
2023-03-03T22:39:03.776Z,3.60
2023-03-03T22:41:33.403Z,3.60
2023-03-03T22:44:01.606Z,3.50
2023-03-03T22:46:29.843Z,3.50
2023-03-03T22:48:58.059Z,3.40
2023-03-03T22:51:26.400Z,3.30
2023-03-03T22:53:54.674Z,3.30
2023-03-03T22:56:22.857Z,3.20
2023-03-03T22:58:52.514Z,3.20
2023-03-03T23:01:20.723Z,3.20
2023-03-03T23:03:50.203Z,3.20
2023-03-03T23:06:18.646Z,3.10
2023-03-03T23:08:47.066Z,3.10
2023-03-03T23:11:15.303Z,3.10
2023-03-03T23:13:43.685Z,3.10
2023-03-03T23:16:13.361Z,3.10
2023-03-03T23:18:43.402Z,3.10
2023-03-03T23:21:11.646Z,3.00
2023-03-03T23:23:39.851Z,3.00
2023-03-03T23:26:08.056Z,3.10
2023-03-03T23:28:36.228Z,3.10
2023-03-03T23:31:04.448Z,3.10
2023-03-03T23:33:35.368Z,3.10
2023-03-03T23:36:03.642Z,3.10
2023-03-03T23:38:31.844Z,3.10
2023-03-03T23:41:00.040Z,3.10
2023-03-03T23:43:28.222Z,3.10
2023-03-03T23:45:56.428Z,3.10
2023-03-03T23:48:24.644Z,3.10
2023-03-03T23:50:54.255Z,3.10
2023-03-03T23:53:22.501Z,3.20
2023-03-03T23:55:52.318Z,3.20
2023-03-03T23:58:20.547Z,3.20
